Time;durP1;ratioP1;P1;durP2;ratioP2;P2;SDS_P1;SDS_P2;PMS_P1;PMS_P2;Temp;Humidity;BMP_temperature;BMP_pressure;BME280_temperature;BME280_humidity;BME280_pressure;Samples;Min_cycle;Max_cycle;Signal;HPM_P1;HPM_P2
2022/01/27 00:02:52;;;;;;;;;;;;;;;2.84;100.00;100903.97;5013991;28;19917;-65
2022/01/27 00:05:23;;;;;;;;;;;;;;;2.72;100.00;100916.31;5014418;28;20028;-64
2022/01/27 00:08:07;;;;;;;;;;;;;;;2.58;100.00;100916.06;5012996;28;19917;-64
2022/01/27 00:13:09;;;;;;;;;;;;;;;2.69;100.00;100919.63;5013889;28;20016;-65
2022/01/27 00:15:35;;;;;;;;;;;;;;;2.79;100.00;100906.44;5012812;28;19913;-65
2022/01/27 00:18:07;;;;;;;;;;;;;;;2.75;100.00;100923.91;5012864;28;20346;-65
2022/01/27 00:20:32;;;;;;;;;;;;;;;2.80;100.00;100928.19;5014263;28;20375;-65
2022/01/27 00:22:58;;;;;;;;;;;;;;;2.64;100.00;100931.22;5012830;28;19921;-64
2022/01/27 00:25:23;;;;;;;;;;;;;;;2.75;100.00;100937.31;5012487;28;20019;-65
2022/01/27 00:27:48;;;;;;;;;;;;;;;2.82;100.00;100935.75;5012475;28;19967;-65
2022/01/27 00:30:14;;;;;;;;;;;;;;;2.75;100.00;100927.28;5013921;28;20034;-65
2022/01/27 00:32:39;;;;;;;;;;;;;;;2.67;100.00;100932.13;5013701;28;19917;-65
2022/01/27 00:35:05;;;;;;;;;;;;;;;2.72;100.00;100928.84;5013800;28;19913;-65
2022/01/27 00:37:30;;;;;;;;;;;;;;;2.71;100.00;100935.56;5013830;28;19920;-65
2022/01/27 00:39:56;;;;;;;;;;;;;;;2.84;100.00;100934.97;5013687;28;19922;-65
2022/01/27 00:42:23;;;;;;;;;;;;;;;2.88;100.00;100931.69;5013700;28;19917;-65
2022/01/27 00:44:48;;;;;;;;;;;;;;;2.86;100.00;100930.81;5013666;28;19975;-65
2022/01/27 00:47:14;;;;;;;;;;;;;;;2.82;100.00;100929.06;5013451;28;19921;-65
2022/01/27 00:49:39;;;;;;;;;;;;;;;2.81;100.00;100934.91;5013464;28;19917;-65
2022/01/27 00:52:09;;;;;;;;;;;;;;;2.64;100.00;100936.25;5012230;28;19946;-66
2022/01/27 00:54:34;;;;;;;;;;;;;;;2.45;100.00;100930.03;5013185;28;19913;-65
2022/01/27 00:59:56;;;;;;;;;;;;;;;2.54;100.00;100924.34;4997515;28;20283;-65
2022/01/27 01:05:03;;;;;;;;;;;;;;;2.49;100.00;100918.41;5013162;28;19922;-65
2022/01/27 01:07:33;;;;;;;;;;;;;;;2.43;100.00;100915.75;4664155;28;10000600;-64
2022/01/27 01:14:58;;;;;;;;;;;;;;;2.45;100.00;100907.47;5013068;28;19909;-64
2022/01/27 01:17:32;;;;;;;;;;;;;;;2.46;100.00;100901.63;5012819;28;19921;-64
2022/01/27 01:33:03;;;;;;;;;;;;;;;2.28;100.00;100893.72;5012790;28;20498;-64
2022/01/27 01:35:36;;;;;;;;;;;;;;;2.34;100.00;100890.47;5011289;28;19920;-64
2022/01/27 01:38:01;;;;;;;;;;;;;;;2.30;100.00;100887.06;5012953;28;20295;-64
2022/01/27 01:40:27;;;;;;;;;;;;;;;2.12;100.00;100890.88;5012752;28;19914;-64
2022/01/27 01:42:52;;;;;;;;;;;;;;;2.02;100.00;100897.34;5012783;28;20375;-64
2022/01/27 01:45:19;;;;;;;;;;;;;;;2.12;100.00;100890.88;5012330;28;20017;-64
2022/01/27 01:47:45;;;;;;;;;;;;;;;2.08;100.00;100894.16;5012783;28;19949;-64
2022/01/27 01:50:11;;;;;;;;;;;;;;;2.18;100.00;100891.03;5012255;28;19970;-64
2022/01/27 01:52:37;;;;;;;;;;;;;;;2.05;100.00;100899.94;5012042;28;19917;-64
2022/01/27 01:55:03;;;;;;;;;;;;;;;2.23;100.00;100895.31;5012361;28;19917;-64
2022/01/27 01:57:29;;;;;;;;;;;;;;;2.13;100.00;100900.09;5012318;28;19909;-64
2022/01/27 01:59:54;;;;;;;;;;;;;;;2.20;100.00;100902.75;5012450;28;19936;-64
2022/01/27 02:02:19;;;;;;;;;;;;;;;2.10;100.00;100905.88;5012079;28;20302;-64
2022/01/27 02:04:45;;;;;;;;;;;;;;;2.13;100.00;100895.06;5012327;28;19967;-64
2022/01/27 02:18:09;;;;;;;;;;;;;;;1.98;100.00;100889.75;5011870;28;19913;-64
2022/01/27 02:20:36;;;;;;;;;;;;;;;1.99;100.00;100883.91;5011833;28;19920;-64
2022/01/27 02:23:06;;;;;;;;;;;;;;;1.81;100.00;100896.91;5011403;28;19975;-63
2022/01/27 02:25:31;;;;;;;;;;;;;;;1.78;100.00;100896.84;5011709;28;20016;-64
2022/01/27 02:27:57;;;;;;;;;;;;;;;1.78;100.00;100891.84;5011082;28;20012;-65
2022/01/27 02:30:23;;;;;;;;;;;;;;;1.63;100.00;100899.00;5011814;28;19945;-64
2022/01/27 02:32:52;;;;;;;;;;;;;;;1.62;100.00;100903.16;5011743;28;19972;-64
2022/01/27 02:35:18;;;;;;;;;;;;;;;1.15;100.00;100902.88;5011669;28;19917;-64
2022/01/27 02:37:44;;;;;;;;;;;;;;;1.10;100.00;100901.88;5011452;28;19917;-64
2022/01/27 02:40:10;;;;;;;;;;;;;;;1.86;100.00;100897.00;5011841;28;20008;-64
2022/01/27 02:42:36;;;;;;;;;;;;;;;1.69;100.00;100906.66;5010029;28;20319;-64
2022/01/27 02:45:04;;;;;;;;;;;;;;;2.14;100.00;100902.63;5011390;28;20445;-64
2022/01/27 02:47:30;;;;;;;;;;;;;;;2.34;100.00;100890.47;5011522;28;19913;-65
2022/01/27 02:49:55;;;;;;;;;;;;;;;2.21;100.00;100891.91;5011557;28;19920;-64
2022/01/27 02:52:20;;;;;;;;;;;;;;;0.91;100.00;100909.75;5011301;28;20303;-64
2022/01/27 02:54:46;;;;;;;;;;;;;;;0.65;100.00;100907.41;5011333;28;19987;-64
2022/01/27 02:57:11;;;;;;;;;;;;;;;0.57;100.00;100913.03;5009875;28;19913;-64
2022/01/27 02:59:37;;;;;;;;;;;;;;;0.50;100.00;100924.50;5009985;28;19996;-64
2022/01/27 03:02:03;;;;;;;;;;;;;;;0.32;100.00;100933.97;5011485;28;19995;-64
2022/01/27 03:04:30;;;;;;;;;;;;;;;0.08;100.00;100930.78;5011546;28;20368;-63
2022/01/27 03:06:56;;;;;;;;;;;;;;;0.04;100.00;100928.16;5010104;28;20523;-64
2022/01/27 03:09:21;;;;;;;;;;;;;;;-0.08;100.00;100944.47;5011142;28;19914;-65
2022/01/27 03:11:48;;;;;;;;;;;;;;;-0.51;100.00;100941.44;5010861;28;20375;-64
2022/01/27 03:14:15;;;;;;;;;;;;;;;-0.48;100.00;100935.72;5011281;28;20087;-64
2022/01/27 03:16:40;;;;;;;;;;;;;;;-0.63;100.00;100937.72;5011293;28;19918;-64
2022/01/27 03:19:06;;;;;;;;;;;;;;;-0.70;100.00;100941.69;5011120;28;20000;-64
2022/01/27 03:21:31;;;;;;;;;;;;;;;-0.67;100.00;100938.44;5011242;28;19914;-65
2022/01/27 03:23:57;;;;;;;;;;;;;;;-0.42;100.00;100939.25;5011262;28;19917;-64
2022/01/27 03:26:23;;;;;;;;;;;;;;;-0.60;100.00;100948.66;5010817;28;19913;-64
2022/01/27 03:28:48;;;;;;;;;;;;;;;-0.77;100.00;100941.44;5010851;28;19945;-64
2022/01/27 03:31:14;;;;;;;;;;;;;;;-1.09;100.00;100938.69;5010945;28;20295;-64
2022/01/27 03:33:40;;;;;;;;;;;;;;;-0.89;100.00;100929.38;5013510;28;20008;-65
2022/01/27 03:36:05;;;;;;;;;;;;;;;-1.00;100.00;100943.16;5014958;28;19975;-65
2022/01/27 03:38:31;;;;;;;;;;;;;;;-1.24;100.00;100943.16;5014909;28;19913;-65
2022/01/27 03:40:58;;;;;;;;;;;;;;;-1.14;100.00;100945.19;5014546;28;19913;-65
2022/01/27 03:43:23;;;;;;;;;;;;;;;-1.25;100.00;100940.63;5013388;28;19955;-65
2022/01/27 03:45:48;;;;;;;;;;;;;;;-1.23;100.00;100944.03;5014758;28;19960;-65
2022/01/27 03:48:13;;;;;;;;;;;;;;;-1.58;100.00;100952.72;5014774;28;19917;-64
2022/01/27 03:50:39;;;;;;;;;;;;;;;-1.69;100.00;100940.69;5015058;28;19932;-64
2022/01/27 03:53:04;;;;;;;;;;;;;;;-1.88;100.00;100951.59;5014514;28;20303;-63
2022/01/27 03:55:29;;;;;;;;;;;;;;;-1.62;100.00;100945.94;5013377;28;19921;-63
2022/01/27 03:57:55;;;;;;;;;;;;;;;-1.56;100.00;100952.78;5012953;28;20417;-63
2022/01/27 04:00:20;;;;;;;;;;;;;;;-1.56;100.00;100958.63;5014609;28;20000;-63
2022/01/27 04:03:20;;;;;;;;;;;;;;;-1.54;100.00;100959.53;5014262;28;19917;-63
2022/01/27 04:05:43;;;;;;;;;;;;;;;-1.88;100.00;100964.91;5012142;28;19920;-63
2022/01/27 04:08:09;;;;;;;;;;;;;;;-1.54;100.00;100964.50;5014016;28;19974;-63
2022/01/27 04:10:35;;;;;;;;;;;;;;;-1.51;100.00;100964.63;5014533;28;20387;-63
2022/01/27 04:13:01;;;;;;;;;;;;;;;-1.35;100.00;100959.41;5014534;28;20068;-62
2022/01/27 04:15:26;;;;;;;;;;;;;;;-1.38;100.00;100961.78;5014116;28;20052;-63
2022/01/27 04:17:51;;;;;;;;;;;;;;;-1.38;100.00;100964.28;5012846;28;20299;-63
2022/01/27 04:20:17;;;;;;;;;;;;;;;-1.55;100.00;100971.94;5014214;28;19914;-63
2022/01/27 04:22:42;;;;;;;;;;;;;;;-1.66;100.00;100966.56;5013703;28;19917;-63
2022/01/27 04:25:08;;;;;;;;;;;;;;;-1.62;100.00;100967.53;5014138;28;20395;-63
2022/01/27 04:27:37;;;;;;;;;;;;;;;-1.85;100.00;100979.13;5014018;28;19917;-62
2022/01/27 04:30:04;;;;;;;;;;;;;;;-1.77;100.00;100978.63;5014100;28;19921;-63
2022/01/27 04:32:36;;;;;;;;;;;;;;;-1.78;100.00;100981.91;5014028;28;19913;-63
2022/01/27 04:35:05;;;;;;;;;;;;;;;-1.76;100.00;100981.97;5014132;28;19917;-63
2022/01/27 04:37:38;;;;;;;;;;;;;;;-1.54;100.00;100984.44;5013635;28;19924;-62
2022/01/27 04:40:10;;;;;;;;;;;;;;;-1.59;100.00;100992.56;5014081;28;19910;-62
2022/01/27 04:42:50;;;;;;;;;;;;;;;-1.54;100.00;100988.59;5013818;28;20008;-61
2022/01/27 04:45:17;;;;;;;;;;;;;;;-1.49;100.00;100990.47;5012556;28;20378;-62
2022/01/27 04:47:47;;;;;;;;;;;;;;;-1.57;100.00;100996.81;5013595;28;19921;-61
2022/01/27 04:50:12;;;;;;;;;;;;;;;-1.58;100.00;100995.09;5013663;28;19913;-61
2022/01/27 04:52:43;;;;;;;;;;;;;;;-1.59;100.00;100997.53;5013536;28;19921;-61
2022/01/27 04:55:11;;;;;;;;;;;;;;;-1.33;100.00;100994.38;5028750;28;19936;-61
2022/01/27 04:57:41;;;;;;;;;;;;;;;-1.75;100.00;101001.13;4999744;28;19914;-62
2022/01/27 05:00:07;;;;;;;;;;;;;;;-1.65;100.00;101002.31;4993930;28;19949;-63
2022/01/27 05:04:58;;;;;;;;;;;;;;;-1.62;100.00;101003.25;4993542;28;19913;-62
2022/01/27 05:07:23;;;;;;;;;;;;;;;-1.27;100.00;101007.88;4993684;28;19913;-63
2022/01/27 05:09:58;;;;;;;;;;;;;;;-1.24;100.00;101009.63;4993288;28;20428;-61
2022/01/27 05:12:48;;;;;;;;;;;;;;;-1.27;100.00;101019.53;4993395;28;19917;-62
2022/01/27 05:15:10;;;;;;;;;;;;;;;-1.16;100.00;101011.63;4992968;28;19913;-65
2022/01/27 05:17:35;;;;;;;;;;;;;;;-1.20;100.00;101023.91;4993286;28;20007;-62
2022/01/27 05:20:00;;;;;;;;;;;;;;;-1.01;100.00;101026.28;4993405;28;19922;-62
2022/01/27 05:22:26;;;;;;;;;;;;;;;-0.95;100.00;101019.84;4993102;28;19913;-61
2022/01/27 05:24:51;;;;;;;;;;;;;;;-0.80;100.00;101023.66;4993304;28;19918;-62
2022/01/27 05:27:17;;;;;;;;;;;;;;;-0.96;100.00;101037.25;4993180;28;19957;-63
2022/01/27 05:29:42;;;;;;;;;;;;;;;-1.00;100.00;101032.97;4993205;28;19971;-62
2022/01/27 05:32:07;;;;;;;;;;;;;;;-0.99;100.00;101037.16;4993057;28;19924;-62
2022/01/27 05:34:33;;;;;;;;;;;;;;;-1.06;100.00;101033.59;4993227;28;19913;-61
2022/01/27 05:36:58;;;;;;;;;;;;;;;-0.81;100.00;101036.94;4992931;28;19914;-62
2022/01/27 05:39:23;;;;;;;;;;;;;;;-0.86;100.00;101051.75;4991582;28;19924;-63
2022/01/27 05:41:49;;;;;;;;;;;;;;;0.50;100.00;101037.03;4992668;28;20298;-63
2022/01/27 05:44:14;;;;;;;;;;;;;;;-0.80;100.00;101048.63;5006781;28;19948;-63
2022/01/27 05:46:39;;;;;;;;;;;;;;;-0.56;100.00;101047.81;5011296;28;19925;-62
2022/01/27 05:49:04;;;;;;;;;;;;;;;-0.75;100.00;101050.47;5012363;28;20094;-63
2022/01/27 05:51:30;;;;;;;;;;;;;;;-0.75;100.00;101050.47;5012428;28;19914;-65
2022/01/27 05:53:55;;;;;;;;;;;;;;;-0.76;100.00;101053.78;5011397;28;19972;-65
2022/01/27 05:56:20;;;;;;;;;;;;;;;-0.56;100.00;101042.84;5012141;28;19939;-65
2022/01/27 05:58:46;;;;;;;;;;;;;;;-0.74;100.00;101053.81;5012066;28;19925;-63
2022/01/27 06:01:12;;;;;;;;;;;;;;;-0.68;100.00;101049.03;5011647;28;19925;-65
2022/01/27 06:03:38;;;;;;;;;;;;;;;-0.87;100.00;101047.56;5011882;28;19924;-65
2022/01/27 06:06:03;;;;;;;;;;;;;;;-0.87;100.00;101057.53;5010529;28;19927;-65
2022/01/27 06:08:30;;;;;;;;;;;;;;;-0.62;100.00;101056.75;5011558;28;20437;-64
2022/01/27 06:10:55;;;;;;;;;;;;;;;-0.62;100.00;101061.72;5010321;28;19963;-63
2022/01/27 06:13:21;;;;;;;;;;;;;;;-0.69;100.00;101070.66;5010420;28;19909;-65
2022/01/27 06:15:46;;;;;;;;;;;;;;;-0.80;100.00;101076.94;5011642;28;19913;-63
2022/01/27 06:18:11;;;;;;;;;;;;;;;-0.88;100.00;101083.28;5012166;28;20375;-65
2022/01/27 06:20:38;;;;;;;;;;;;;;;-0.59;100.00;101081.78;5012416;28;19913;-63
2022/01/27 06:23:04;;;;;;;;;;;;;;;-0.67;100.00;101084.03;5011675;28;19917;-63
2022/01/27 06:25:30;;;;;;;;;;;;;;;-0.38;100.00;101077.56;5011785;28;19963;-63
2022/01/27 06:27:56;;;;;;;;;;;;;;;-0.23;100.00;101081.41;5011530;28;20287;-65
2022/01/27 06:30:21;;;;;;;;;;;;;;;-0.36;100.00;101079.31;5011738;28;19913;-66
2022/01/27 06:32:46;;;;;;;;;;;;;;;-0.13;100.00;101082.53;5011628;28;19913;-63
2022/01/27 06:35:12;;;;;;;;;;;;;;;-0.24;100.00;101084.69;5011935;28;19921;-62
2022/01/27 06:37:37;;;;;;;;;;;;;;;-0.05;100.00;101084.50;5010124;28;19917;-63
2022/01/27 06:40:06;;;;;;;;;;;;;;;0.07;100.00;101083.19;5011632;28;19921;-62
2022/01/27 06:42:31;;;;;;;;;;;;;;;0.10;100.00;101089.13;5011293;28;20379;-62
2022/01/27 06:44:57;;;;;;;;;;;;;;;0.33;100.00;101098.22;5011538;28;19919;-62
2022/01/27 06:47:22;;;;;;;;;;;;;;;0.24;100.00;101102.06;5011680;28;19913;-62
2022/01/27 06:49:47;;;;;;;;;;;;;;;0.28;100.00;101091.38;5011499;28;20268;-62
2022/01/27 06:52:13;;;;;;;;;;;;;;;0.19;100.00;101086.06;5011381;28;19937;-62
2022/01/27 06:54:38;;;;;;;;;;;;;;;0.17;100.00;101093.53;5011355;28;20358;-62
2022/01/27 06:57:05;;;;;;;;;;;;;;;0.13;100.00;101085.88;5011166;28;19918;-64
2022/01/27 06:59:30;;;;;;;;;;;;;;;0.63;100.00;101078.28;5011173;28;20315;-62
2022/01/27 07:01:56;;;;;;;;;;;;;;;0.48;100.00;101082.81;5011222;28;19965;-62
2022/01/27 07:04:21;;;;;;;;;;;;;;;0.67;100.00;101080.91;5011273;28;19921;-62
2022/01/27 07:06:48;;;;;;;;;;;;;;;0.72;100.00;101083.53;5009881;28;19963;-63
2022/01/27 07:09:13;;;;;;;;;;;;;;;0.81;100.00;101083.81;5010873;28;19913;-62
2022/01/27 07:11:39;;;;;;;;;;;;;;;0.60;100.00;101093.19;5011181;28;19920;-62
2022/01/27 07:14:04;;;;;;;;;;;;;;;0.71;100.00;101089.34;5011292;28;20406;-62
2022/01/27 07:16:29;;;;;;;;;;;;;;;0.93;100.00;101084.19;5011424;28;19913;-62
2022/01/27 07:18:55;;;;;;;;;;;;;;;0.91;100.00;101079.94;5011049;28;20402;-62
2022/01/27 07:21:20;;;;;;;;;;;;;;;0.83;100.00;101090.53;5011308;28;20004;-63
2022/01/27 07:23:46;;;;;;;;;;;;;;;1.02;100.00;101084.41;5011192;28;19920;-63
2022/01/27 07:26:13;;;;;;;;;;;;;;;0.74;100.00;101090.28;5009432;28;19913;-63
2022/01/27 07:28:38;;;;;;;;;;;;;;;1.28;100.00;101085.13;5009778;28;20418;-64
2022/01/27 07:31:03;;;;;;;;;;;;;;;1.00;100.00;101082.66;5010976;28;19953;-62
2022/01/27 07:33:29;;;;;;;;;;;;;;;0.94;100.00;101085.84;5010986;28;19913;-62
2022/01/27 07:35:54;;;;;;;;;;;;;;;1.00;100.00;101080.16;5010985;28;19921;-63
2022/01/27 07:38:20;;;;;;;;;;;;;;;1.90;100.00;101076.75;5009827;28;19914;-63
2022/01/27 07:40:45;;;;;;;;;;;;;;;1.80;100.00;101072.31;5010924;28;19913;-62
2022/01/27 07:43:11;;;;;;;;;;;;;;;2.00;100.00;101058.59;5011210;28;19917;-62
2022/01/27 07:45:36;;;;;;;;;;;;;;;1.98;100.00;101066.06;5009690;28;19913;-63
2022/01/27 07:48:02;;;;;;;;;;;;;;;2.13;100.00;101061.44;5010784;28;19917;-63
2022/01/27 07:50:29;;;;;;;;;;;;;;;2.74;100.00;101056.09;5010743;28;19966;-63
2022/01/27 07:52:55;;;;;;;;;;;;;;;2.95;100.00;101064.06;5010715;28;19917;-63
2022/01/27 07:55:20;;;;;;;;;;;;;;;2.92;100.00;101065.66;5010352;28;20150;-63
2022/01/27 07:57:46;;;;;;;;;;;;;;;3.06;100.00;101057.59;5010783;28;19925;-62
2022/01/27 08:00:11;;;;;;;;;;;;;;;3.08;100.00;101055.97;5010579;28;19971;-63
2022/01/27 08:02:37;;;;;;;;;;;;;;;3.19;100.00;101057.00;5009120;28;19917;-63
2022/01/27 08:05:02;;;;;;;;;;;;;;;3.34;100.00;101051.44;5010765;28;19920;-63
2022/01/27 08:07:27;;;;;;;;;;;;;;;3.52;100.00;101051.75;5010648;28;19916;-63
2022/01/27 08:09:53;;;;;;;;;;;;;;;3.71;100.00;101053.75;5010350;28;20030;-63
2022/01/27 08:12:18;;;;;;;;;;;;;;;3.82;100.00;101049.78;5010619;28;19920;-65
2022/01/27 08:14:43;;;;;;;;;;;;;;;3.86;100.00;101043.13;5010701;28;20092;-63
2022/01/27 08:17:09;;;;;;;;;;;;;;;4.10;100.00;101044.34;5010267;28;20454;-63
2022/01/27 08:19:34;;;;;;;;;;;;;;;4.14;100.00;101043.56;5012333;28;19920;-63
2022/01/27 08:21:59;;;;;;;;;;;;;;;4.28;100.00;101041.25;5012844;28;19913;-63
2022/01/27 08:24:24;;;;;;;;;;;;;;;4.39;100.00;101042.25;5013835;28;19913;-66
2022/01/27 08:26:53;;;;;;;;;;;;;;;4.30;100.00;101040.44;5012495;28;19936;-63
2022/01/27 08:29:26;;;;;;;;;;;;;;;4.35;100.00;101043.91;5013919;28;20298;-63
2022/01/27 08:31:58;;;;;;;;;;;;;;;4.50;100.00;101043.25;5014122;28;19915;-63
2022/01/27 08:34:36;;;;;;;;;;;;;;;4.65;100.00;101057.72;5012622;28;19913;-63
2022/01/27 08:37:07;;;;;;;;;;;;;;;4.80;100.00;101060.41;5013809;28;20437;-64
2022/01/27 08:39:32;;;;;;;;;;;;;;;4.66;100.00;101059.41;5013991;28;19913;-63
2022/01/27 08:41:58;;;;;;;;;;;;;;;4.68;100.00;101056.06;5013775;28;19913;-64
2022/01/27 08:44:24;;;;;;;;;;;;;;;4.97;100.00;101062.31;5013812;28;19913;-64
2022/01/27 08:46:50;;;;;;;;;;;;;;;5.03;100.00;101066.59;5013809;28;20016;-64
2022/01/27 08:49:17;;;;;;;;;;;;;;;5.14;100.00;101063.38;5013596;28;20390;-63
2022/01/27 08:51:43;;;;;;;;;;;;;;;4.76;100.00;101069.63;5013641;28;19956;-66
2022/01/27 08:54:08;;;;;;;;;;;;;;;4.91;100.00;101071.50;5012360;28;19956;-66
2022/01/27 08:56:33;;;;;;;;;;;;;;;4.32;100.00;101075.69;5013292;28;20464;-63
2022/01/27 08:58:59;;;;;;;;;;;;;;;4.40;100.00;101067.44;5013763;28;19920;-63
2022/01/27 09:01:26;;;;;;;;;;;;;;;4.67;100.00;101061.97;5013570;28;19913;-63
2022/01/27 09:03:52;;;;;;;;;;;;;;;4.69;100.00;101061.97;5013222;28;19917;-63
2022/01/27 09:06:20;;;;;;;;;;;;;;;4.51;100.00;101065.09;5013657;28;19920;-64
2022/01/27 09:08:46;;;;;;;;;;;;;;;4.17;100.00;101062.91;5011843;28;19917;-64
2022/01/27 09:11:12;;;;;;;;;;;;;;;4.28;100.00;101061.38;5013022;28;20402;-63
2022/01/27 09:13:38;;;;;;;;;;;;;;;4.11;100.00;101061.13;5013198;28;19949;-63
2022/01/27 09:16:04;;;;;;;;;;;;;;;4.05;100.00;101065.22;5013267;28;19987;-63
2022/01/27 09:18:29;;;;;;;;;;;;;;;4.30;100.00;101059.72;5013145;28;19913;-63
2022/01/27 09:20:56;;;;;;;;;;;;;;;4.72;100.00;101059.47;5013002;28;19924;-63
2022/01/27 09:23:22;;;;;;;;;;;;;;;4.50;100.00;101070.94;5011635;28;19918;-63
2022/01/27 09:25:49;;;;;;;;;;;;;;;4.47;100.00;101062.50;5013009;28;19924;-63
2022/01/27 09:28:15;;;;;;;;;;;;;;;4.24;100.00;101054.59;5012940;28;19917;-63
2022/01/27 09:30:42;;;;;;;;;;;;;;;4.64;100.00;101051.81;5012216;28;19913;-63
2022/01/27 09:33:08;;;;;;;;;;;;;;;4.41;100.00;101055.72;5012781;28;19913;-64
2022/01/27 09:35:33;;;;;;;;;;;;;;;4.81;100.00;101055.44;5012554;28;19920;-66
2022/01/27 09:37:59;;;;;;;;;;;;;;;4.93;100.00;101045.47;5011165;28;20412;-65
2022/01/27 09:40:25;;;;;;;;;;;;;;;5.64;100.00;101041.22;5012950;28;20450;-64
2022/01/27 09:42:53;;;;;;;;;;;;;;;5.08;100.00;101038.13;5012663;28;19975;-64
2022/01/27 09:45:19;;;;;;;;;;;;;;;4.81;100.00;101040.31;5011114;28;20391;-64
2022/01/27 09:47:53;;;;;;;;;;;;;;;5.13;100.00;101030.63;5012464;28;19962;-64
2022/01/27 09:52:53;;;;;;;;;;;;;;;5.28;100.00;101033.28;5012623;28;19914;-65
2022/01/27 09:55:18;;;;;;;;;;;;;;;5.50;100.00;101022.59;5011082;28;20318;-65
2022/01/27 09:57:46;;;;;;;;;;;;;;;5.27;100.00;101022.34;5012242;28;20391;-65
2022/01/27 10:00:12;;;;;;;;;;;;;;;5.33;100.00;101021.56;5012620;28;19920;-65
2022/01/27 10:02:39;;;;;;;;;;;;;;;5.17;100.00;101023.06;5012005;28;20303;-64
2022/01/27 10:05:04;;;;;;;;;;;;;;;5.24;100.00;101019.81;5012255;28;19914;-62
2022/01/27 10:07:38;;;;;;;;;;;;;;;5.51;100.00;101011.66;5012152;28;19919;-64
2022/01/27 10:10:05;;;;;;;;;;;;;;;5.33;100.00;101014.00;5010687;28;20069;-64
2022/01/27 10:12:34;;;;;;;;;;;;;;;5.69;100.00;101005.91;5012104;28;19972;-64
2022/01/27 10:15:02;;;;;;;;;;;;;;;6.13;99.43;101002.09;5011846;28;19909;-64
2022/01/27 10:17:29;;;;;;;;;;;;;;;6.53;95.78;100993.91;5012179;28;19913;-63
2022/01/27 10:19:54;;;;;;;;;;;;;;;6.83;89.50;101000.75;5012200;28;19947;-63
2022/01/27 10:22:20;;;;;;;;;;;;;;;7.22;84.09;100998.34;5011923;28;19918;-63
2022/01/27 10:24:45;;;;;;;;;;;;;;;6.84;82.86;100990.66;5011985;28;19914;-63
2022/01/27 10:27:32;;;;;;;;;;;;;;;7.20;79.36;100981.47;5011872;28;19913;-63
2022/01/27 10:32:35;;;;;;;;;;;;;;;7.63;73.61;100978.13;5011878;28;19913;-63
2022/01/27 10:35:01;;;;;;;;;;;;;;;7.74;71.51;100971.41;5011607;28;19909;-63
2022/01/27 10:37:27;;;;;;;;;;;;;;;7.60;70.94;100968.03;5010491;28;19914;-63
2022/01/27 10:39:52;;;;;;;;;;;;;;;8.05;67.94;100967.97;5010195;28;19916;-63
2022/01/27 10:42:21;;;;;;;;;;;;;;;7.81;68.84;100960.41;5010681;28;19917;-66
2022/01/27 10:44:56;;;;;;;;;;;;;;;7.92;68.91;100963.78;5011766;28;19913;-64
2022/01/27 10:47:27;;;;;;;;;;;;;;;8.10;67.36;100960.38;5011607;28;19967;-64
2022/01/27 10:49:58;;;;;;;;;;;;;;;7.74;65.50;100959.56;5011433;28;20383;-64
2022/01/27 10:52:37;;;;;;;;;;;;;;;7.96;64.84;100945.22;5011421;28;20375;-64
2022/01/27 10:55:13;;;;;;;;;;;;;;;7.73;66.16;100946.91;5011663;28;19914;-64
2022/01/27 10:57:38;;;;;;;;;;;;;;;7.94;65.37;100946.91;5011555;28;19917;-64
2022/01/27 11:00:11;;;;;;;;;;;;;;;7.93;65.83;100947.75;5011260;28;20343;-64
2022/01/27 11:02:54;;;;;;;;;;;;;;;8.97;63.99;100938.94;5011333;28;19924;-63
2022/01/27 11:05:20;;;;;;;;;;;;;;;8.39;63.04;100929.09;5010953;28;20398;-63
2022/01/27 11:07:46;;;;;;;;;;;;;;;8.76;62.00;100932.28;5010083;28;19996;-64
2022/01/27 11:10:12;;;;;;;;;;;;;;;8.96;59.55;100927.09;5009714;28;20095;-64
2022/01/27 11:12:38;;;;;;;;;;;;;;;8.81;60.16;100924.66;5011152;28;20004;-64
2022/01/27 11:15:04;;;;;;;;;;;;;;;8.33;59.29;100872.53;5011572;28;19924;-63
2022/01/27 11:17:34;;;;;;;;;;;;;;;8.72;59.11;100912.88;5010994;28;19909;-64
2022/01/27 11:20:19;;;;;;;;;;;;;;;8.69;58.86;100918.78;5011234;28;19920;-64
2022/01/27 11:27:48;;;;;;;;;;;;;;;8.55;54.85;100918.03;5011270;28;19979;-65
2022/01/27 11:30:16;;;;;;;;;;;;;;;8.02;54.49;100922.44;5009319;28;20420;-65
2022/01/27 11:33:02;;;;;;;;;;;;;;;7.92;55.81;100918.22;5009934;28;19920;-65
2022/01/27 11:35:27;;;;;;;;;;;;;;;7.94;55.83;100914.00;5010540;28;19913;-65
2022/01/27 11:37:54;;;;;;;;;;;;;;;7.98;55.73;100910.63;5011007;28;19913;-65
2022/01/27 11:40:20;;;;;;;;;;;;;;;7.69;55.55;100912.34;5010976;28;20375;-65
2022/01/27 11:42:54;;;;;;;;;;;;;;;7.82;56.43;100898.84;5010638;28;19913;-65
2022/01/27 11:45:22;;;;;;;;;;;;;;;7.74;56.40;100900.53;5010808;28;19914;-64
2022/01/27 11:48:12;;;;;;;;;;;;;;;7.70;56.29;100898.84;5009712;28;19917;-65
2022/01/27 11:50:58;;;;;;;;;;;;;;;8.38;54.62;100891.91;5010035;28;19952;-65
2022/01/27 11:53:27;;;;;;;;;;;;;;;8.88;53.18;100890.81;5011120;28;19917;-64
2022/01/27 11:55:52;;;;;;;;;;;;;;;9.16;52.50;100884.69;5014496;28;20359;-65
2022/01/27 11:58:19;;;;;;;;;;;;;;;9.85;51.08;100873.03;5014740;28;20383;-65
2022/01/27 12:00:59;;;;;;;;;;;;;;;9.69;50.67;100872.38;5014586;28;19967;-64
2022/01/27 12:03:26;;;;;;;;;;;;;;;9.75;48.85;100861.28;5012879;28;20389;-65
2022/01/27 12:06:09;;;;;;;;;;;;;;;10.44;49.47;100861.34;5014351;28;20033;-65
2022/01/27 12:08:35;;;;;;;;;;;;;;;10.11;48.75;100866.88;5014749;28;20011;-64
2022/01/27 12:11:03;;;;;;;;;;;;;;;9.86;49.65;100862.03;5013253;28;20020;-64
2022/01/27 12:13:43;;;;;;;;;;;;;;;9.35;48.59;100855.75;5012830;28;19927;-65
2022/01/27 12:16:12;;;;;;;;;;;;;;;10.07;46.88;100861.78;5014097;28;19959;-64
2022/01/27 12:18:38;;;;;;;;;;;;;;;10.39;46.22;100860.59;5014420;28;19952;-65
2022/01/27 12:21:22;;;;;;;;;;;;;;;10.51;47.72;100853.63;5014245;28;19957;-64
2022/01/27 12:24:06;;;;;;;;;;;;;;;11.10;46.34;100854.44;5014013;28;19913;-65
2022/01/27 12:26:49;;;;;;;;;;;;;;;10.08;46.25;100854.16;5013925;28;19920;-64
2022/01/27 12:29:26;;;;;;;;;;;;;;;10.94;44.94;100850.47;5012425;28;20322;-65
2022/01/27 12:31:52;;;;;;;;;;;;;;;10.04;45.65;100854.22;5013917;28;20406;-65
2022/01/27 12:34:18;;;;;;;;;;;;;;;9.39;45.62;100853.19;5013859;28;19910;-65
2022/01/27 12:36:52;;;;;;;;;;;;;;;8.55;46.23;100854.69;5013835;28;19939;-66
2022/01/27 12:39:21;;;;;;;;;;;;;;;8.92;46.00;100851.91;5013930;28;19916;-65
2022/01/27 12:41:48;;;;;;;;;;;;;;;8.44;46.28;100853.88;5013823;28;19913;-65
2022/01/27 12:44:14;;;;;;;;;;;;;;;8.60;47.60;100847.88;5013744;28;19921;-65
2022/01/27 12:46:59;;;;;;;;;;;;;;;8.64;47.13;100849.56;5013734;28;20307;-65
2022/01/27 12:49:36;;;;;;;;;;;;;;;8.68;47.38;100847.84;5013267;28;19920;-65
2022/01/27 12:52:05;;;;;;;;;;;;;;;8.65;47.08;100851.25;5012221;28;19965;-65
2022/01/27 12:54:30;;;;;;;;;;;;;;;8.80;47.23;100849.44;5013736;28;19943;-65
2022/01/27 12:56:56;;;;;;;;;;;;;;;8.40;47.35;100851.38;5013467;28;19914;-64
2022/01/27 12:59:21;;;;;;;;;;;;;;;8.10;47.74;100849.78;5013171;28;19924;-65
2022/01/27 13:01:54;;;;;;;;;;;;;;;8.31;47.39;100847.22;5013283;28;19918;-65
2022/01/27 13:04:23;;;;;;;;;;;;;;;8.47;47.05;100846.28;5013492;28;19918;-65
2022/01/27 13:06:52;;;;;;;;;;;;;;;8.58;47.09;100847.06;5012534;28;19987;-65
2022/01/27 13:09:18;;;;;;;;;;;;;;;8.11;46.70;100853.16;5013051;28;20016;-65
2022/01/27 13:11:45;;;;;;;;;;;;;;;8.39;46.13;100845.47;5013042;28;20470;-65
2022/01/27 13:14:11;;;;;;;;;;;;;;;8.32;46.52;100846.34;5013127;28;19919;-64
2022/01/27 13:16:40;;;;;;;;;;;;;;;8.09;46.43;100837.97;5012818;28;20282;-64
2022/01/27 13:19:11;;;;;;;;;;;;;;;8.23;45.90;100843.00;5013206;28;19999;-65
2022/01/27 13:21:38;;;;;;;;;;;;;;;7.97;46.66;100848.16;5013095;28;20405;-65
2022/01/27 13:24:11;;;;;;;;;;;;;;;7.92;45.89;100839.75;5012692;28;19918;-65
2022/01/27 13:26:37;;;;;;;;;;;;;;;7.88;46.68;100838.06;5012840;28;20411;-65
2022/01/27 13:29:03;;;;;;;;;;;;;;;7.69;47.46;100834.75;5012644;28;19914;-65